PWSweather.com
Personal Weather Stations
Station Observations
265NC
Va2kh, Becancour, QC G9H 2M1

Va2khBecancour, QC G9H 2M1

Lat: 46.32855, Lon: -72.52436

Elevation: 5

Station Type: National Geographic 265NC

http://www.qsl.net/va2kh

High Low Average
Temperature 82.6°F28.1°C 61.0°F16.1°C 70.2°F21.2°C
Dew Point 64.9°F18.3°C 51.6°F10.9°C 57.3°F14.1°C
Winds 12.1 mph 19.5 kmh Calm Calm 3.0 mph WNW4.8 kmh WNW
Wind Gusts 15.9 mph25.6 kmh 0.7 mph1.1 kmh 8.0 mph12.9 kmh
Humidity 99% 39% 66%
Pressure 30.62 in1036.9 mb 30.39 in1029.1 mb -
Precipitation 0.00 in0.0 mm - -
Hour Temp Dew Point Humidity Winds Wind Gusts Pressure Precip Precip Rate Daily Precip Total
12:00 AM 65.8°F18.8°C 65.6°F18.7°C 99% Calm Calm 0.7 mph1.1 kmh 30.38 in1028.8 mb 0.00 in0.0 mm 0.00 in0.0 mm 0.00 in0.0 mm
12:15 AM 65.3°F18.5°C 65.0°F18.3°C 99% Calm Calm -- 30.38 in1028.8 mb 0.00 in0.0 mm 0.00 in0.0 mm 0.00 in0.0 mm
12:30 AM 65.3°F18.5°C 65.0°F18.3°C 99% 2.2 mph WSW3.5 kmh WSW 3.8 mph6.1 kmh 30.39 in1029.1 mb 0.00 in0.0 mm 0.00 in0.0 mm 0.00 in0.0 mm
12:45 AM 64.8°F18.2°C 64.5°F18.1°C 99% Calm Calm 4.5 mph7.2 kmh 30.39 in1029.1 mb 0.00 in0.0 mm 0.00 in0.0 mm 0.00 in0.0 mm
01:00 AM 63.9°F17.7°C 63.6°F17.6°C 99% Calm Calm 1.6 mph2.6 kmh 30.39 in1029.1 mb 0.00 in0.0 mm 0.00 in0.0 mm 0.00 in0.0 mm
01:15 AM 64.0°F17.8°C 63.8°F17.7°C 99% Calm Calm 2.2 mph3.5 kmh 30.39 in1029.1 mb 0.00 in0.0 mm 0.00 in0.0 mm 0.00 in0.0 mm
01:30 AM 63.7°F17.6°C 63.4°F17.4°C 99% Calm Calm 0.7 mph1.1 kmh 30.40 in1029.5 mb 0.00 in0.0 mm 0.00 in0.0 mm 0.00 in0.0 mm
01:45 AM 64.2°F17.9°C 64.0°F17.8°C 99% Calm Calm 3.1 mph5.0 kmh 30.40 in1029.5 mb 0.00 in0.0 mm 0.00 in0.0 mm 0.00 in0.0 mm
02:00 AM 65.1°F18.4°C 64.9°F18.3°C 99% Calm Calm 2.2 mph3.5 kmh 30.41 in1029.8 mb 0.00 in0.0 mm 0.00 in0.0 mm 0.00 in0.0 mm
02:15 AM 63.9°F17.7°C 63.6°F17.6°C 99% Calm Calm 1.6 mph2.6 kmh 30.42 in1030.1 mb 0.00 in0.0 mm 0.00 in0.0 mm 0.00 in0.0 mm
02:30 AM 64.0°F17.8°C 63.8°F17.7°C 99% Calm Calm 3.1 mph5.0 kmh 30.43 in1030.5 mb 0.00 in0.0 mm 0.00 in0.0 mm 0.00 in0.0 mm
02:45 AM 67.1°F19.5°C 63.1°F17.3°C 87% 5.4 mph W8.7 kmh W 10.7 mph17.2 kmh 30.43 in1030.5 mb 0.00 in0.0 mm 0.00 in0.0 mm 0.00 in0.0 mm
03:00 AM 66.9°F19.4°C 62.0°F16.7°C 84% 2.2 mph W3.5 kmh W 13.0 mph20.9 kmh 30.44 in1030.8 mb 0.00 in0.0 mm 0.00 in0.0 mm 0.00 in0.0 mm
03:15 AM 66.2°F19.0°C 61.6°F16.4°C 85% 0.7 mph NW1.1 kmh NW 5.4 mph8.7 kmh 30.44 in1030.8 mb 0.00 in0.0 mm 0.00 in0.0 mm 0.00 in0.0 mm
03:30 AM 65.7°F18.7°C 61.1°F16.2°C 85% 0.7 mph NW1.1 kmh NW 6.9 mph11.1 kmh 30.45 in1031.2 mb 0.00 in0.0 mm 0.00 in0.0 mm 0.00 in0.0 mm
03:45 AM 65.3°F18.5°C 60.4°F15.8°C 84% 1.6 mph WNW2.6 kmh WNW 8.3 mph13.4 kmh 30.45 in1031.2 mb 0.00 in0.0 mm 0.00 in0.0 mm 0.00 in0.0 mm
04:00 AM 65.5°F18.6°C 59.9°F15.5°C 82% 6.0 mph W9.7 kmh W 13.6 mph21.9 kmh 30.46 in1031.5 mb 0.00 in0.0 mm 0.00 in0.0 mm 0.00 in0.0 mm
04:15 AM 65.3°F18.5°C 59.3°F15.2°C 81% 3.1 mph W5.0 kmh W 12.1 mph19.5 kmh 30.47 in1031.8 mb 0.00 in0.0 mm 0.00 in0.0 mm 0.00 in0.0 mm
04:30 AM 64.2°F17.9°C 58.6°F14.8°C 82% 3.8 mph W6.1 kmh W 9.2 mph14.8 kmh 30.48 in1032.2 mb 0.00 in0.0 mm 0.00 in0.0 mm 0.00 in0.0 mm
04:45 AM 64.2°F17.9°C 59.0°F15.0°C 83% 2.2 mph W3.5 kmh W 9.2 mph14.8 kmh 30.48 in1032.2 mb 0.00 in0.0 mm 0.00 in0.0 mm 0.00 in0.0 mm
05:00 AM 63.1°F17.3°C 58.6°F14.8°C 85% 1.6 mph W2.6 kmh W 3.8 mph6.1 kmh 30.49 in1032.5 mb 0.00 in0.0 mm 0.00 in0.0 mm 0.00 in0.0 mm
05:15 AM 63.5°F17.5°C 58.6°F14.8°C 84% 3.1 mph W5.0 kmh W 10.7 mph17.2 kmh 30.50 in1032.8 mb 0.00 in0.0 mm 0.00 in0.0 mm 0.00 in0.0 mm
05:30 AM 63.7°F17.6°C 58.8°F14.9°C 84% Calm Calm 2.2 mph3.5 kmh 30.50 in1032.8 mb 0.00 in0.0 mm 0.00 in0.0 mm 0.00 in0.0 mm
05:45 AM 65.3°F18.5°C 59.7°F15.4°C 82% 3.1 mph SW5.0 kmh SW 5.4 mph8.7 kmh 30.51 in1033.2 mb 0.00 in0.0 mm 0.00 in0.0 mm 0.00 in0.0 mm
06:00 AM 65.5°F18.6°C 59.2°F15.1°C 80% 3.1 mph W5.0 kmh W 6.9 mph11.1 kmh 30.52 in1033.5 mb 0.00 in0.0 mm 0.00 in0.0 mm 0.00 in0.0 mm
06:15 AM 64.6°F18.1°C 57.6°F14.2°C 78% 4.5 mph W7.2 kmh W 9.8 mph15.8 kmh 30.52 in1033.5 mb 0.00 in0.0 mm 0.00 in0.0 mm 0.00 in0.0 mm
06:30 AM 66.0°F18.9°C 57.5°F14.2°C 74% 7.6 mph W12.2 kmh W 9.8 mph15.8 kmh 30.53 in1033.9 mb 0.00 in0.0 mm 0.00 in0.0 mm 0.00 in0.0 mm
06:45 AM 64.4°F18.0°C 56.3°F13.5°C 75% 9.2 mph W14.8 kmh W 15.2 mph24.5 kmh 30.54 in1034.2 mb 0.00 in0.0 mm 0.00 in0.0 mm 0.00 in0.0 mm
07:00 AM 64.0°F17.8°C 56.3°F13.5°C 76% 12.1 mph W19.5 kmh W 15.9 mph25.6 kmh 30.54 in1034.2 mb 0.00 in0.0 mm 0.00 in0.0 mm 0.00 in0.0 mm
07:15 AM 64.4°F18.0°C 56.0°F13.3°C 74% 10.7 mph W17.2 kmh W 15.2 mph24.5 kmh 30.55 in1034.5 mb 0.00 in0.0 mm 0.00 in0.0 mm 0.00 in0.0 mm
07:30 AM 65.7°F18.7°C 56.8°F13.8°C 73% 5.4 mph W8.7 kmh W 13.0 mph20.9 kmh 30.55 in1034.5 mb 0.00 in0.0 mm 0.00 in0.0 mm 0.00 in0.0 mm
07:45 AM 66.6°F19.2°C 56.9°F13.8°C 71% 3.1 mph W5.0 kmh W 9.8 mph15.8 kmh 30.55 in1034.5 mb 0.00 in0.0 mm 0.00 in0.0 mm 0.00 in0.0 mm
08:00 AM 67.5°F19.7°C 56.6°F13.7°C 68% 6.0 mph W9.7 kmh W 11.4 mph18.3 kmh 30.55 in1034.5 mb 0.00 in0.0 mm 0.00 in0.0 mm 0.00 in0.0 mm
08:15 AM 68.5°F20.3°C 57.6°F14.2°C 68% 1.6 mph WNW2.6 kmh WNW 11.4 mph18.3 kmh 30.56 in1034.9 mb 0.00 in0.0 mm 0.00 in0.0 mm 0.00 in0.0 mm
08:30 AM 70.9°F21.6°C 57.2°F14.0°C 62% 0.7 mph NW1.1 kmh NW 6.0 mph9.7 kmh 30.55 in1034.5 mb 0.00 in0.0 mm 0.00 in0.0 mm 0.00 in0.0 mm
08:45 AM 70.9°F21.6°C 57.2°F14.0°C 62% 3.1 mph W5.0 kmh W 6.9 mph11.1 kmh 30.56 in1034.9 mb 0.00 in0.0 mm 0.00 in0.0 mm 0.00 in0.0 mm
09:00 AM 69.1°F20.6°C 56.0°F13.3°C 63% 2.2 mph W3.5 kmh W 9.2 mph14.8 kmh 30.56 in1034.9 mb 0.00 in0.0 mm 0.00 in0.0 mm 0.00 in0.0 mm
09:15 AM 72.0°F22.2°C 57.3°F14.1°C 60% 0.7 mph NW1.1 kmh NW 4.5 mph7.2 kmh 30.57 in1035.2 mb 0.00 in0.0 mm 0.00 in0.0 mm 0.00 in0.0 mm
09:30 AM 73.2°F22.9°C 56.6°F13.7°C 56% 3.1 mph NW5.0 kmh NW 5.4 mph8.7 kmh 30.57 in1035.2 mb 0.00 in0.0 mm 0.00 in0.0 mm 0.00 in0.0 mm
09:45 AM 72.9°F22.7°C 55.3°F12.9°C 54% 3.1 mph W5.0 kmh W 5.4 mph8.7 kmh 30.58 in1035.6 mb 0.00 in0.0 mm 0.00 in0.0 mm 0.00 in0.0 mm
10:00 AM 73.8°F23.2°C 55.6°F13.1°C 53% 1.6 mph W2.6 kmh W 6.0 mph9.7 kmh 30.58 in1035.6 mb 0.00 in0.0 mm 0.00 in0.0 mm 0.00 in0.0 mm
10:15 AM 72.9°F22.7°C 55.3°F12.9°C 54% 1.6 mph W2.6 kmh W 6.0 mph9.7 kmh 30.58 in1035.6 mb 0.00 in0.0 mm 0.00 in0.0 mm 0.00 in0.0 mm
10:30 AM 75.2°F24.0°C 58.0°F14.4°C 55% 1.6 mph NW2.6 kmh NW 8.3 mph13.4 kmh 30.58 in1035.6 mb 0.00 in0.0 mm 0.00 in0.0 mm 0.00 in0.0 mm
10:45 AM 74.3°F23.5°C 56.6°F13.7°C 54% Calm Calm 7.6 mph12.2 kmh 30.59 in1035.9 mb 0.00 in0.0 mm 0.00 in0.0 mm 0.00 in0.0 mm
11:00 AM 75.0°F23.9°C 56.2°F13.4°C 52% 1.6 mph W2.6 kmh W 5.4 mph8.7 kmh 30.58 in1035.6 mb 0.00 in0.0 mm 0.00 in0.0 mm 0.00 in0.0 mm
11:15 AM 74.8°F23.8°C 57.1°F13.9°C 54% 0.7 mph NNW1.1 kmh NNW 8.3 mph13.4 kmh 30.59 in1035.9 mb 0.00 in0.0 mm 0.00 in0.0 mm 0.00 in0.0 mm
11:30 AM 75.4°F24.1°C 57.1°F13.9°C 53% 1.6 mph NNW2.6 kmh NNW 6.0 mph9.7 kmh 30.58 in1035.6 mb 0.00 in0.0 mm 0.00 in0.0 mm 0.00 in0.0 mm
11:45 AM 75.0°F23.9°C 56.8°F13.8°C 53% 1.6 mph W2.6 kmh W 4.5 mph7.2 kmh 30.59 in1035.9 mb 0.00 in0.0 mm 0.00 in0.0 mm 0.00 in0.0 mm
12:00 PM 76.3°F24.6°C 56.3°F13.5°C 50% 0.7 mph WNW1.1 kmh WNW 5.4 mph8.7 kmh 30.59 in1035.9 mb 0.00 in0.0 mm 0.00 in0.0 mm 0.00 in0.0 mm
12:15 PM 77.4°F25.2°C 56.7°F13.7°C 49% 0.7 mph WNW1.1 kmh WNW 5.4 mph8.7 kmh 30.57 in1035.2 mb 0.00 in0.0 mm 0.00 in0.0 mm 0.00 in0.0 mm
12:30 PM 79.0°F26.1°C 55.2°F12.9°C 44% 2.2 mph NNW3.5 kmh NNW 6.0 mph9.7 kmh 30.57 in1035.2 mb 0.00 in0.0 mm 0.00 in0.0 mm 0.00 in0.0 mm
12:45 PM 78.6°F25.9°C 54.3°F12.4°C 43% 1.6 mph NW2.6 kmh NW 6.0 mph9.7 kmh 30.57 in1035.2 mb 0.00 in0.0 mm 0.00 in0.0 mm 0.00 in0.0 mm
01:00 PM 78.1°F25.6°C 55.7°F13.2°C 46% 0.7 mph W1.1 kmh W 4.5 mph7.2 kmh 30.57 in1035.2 mb 0.00 in0.0 mm 0.00 in0.0 mm 0.00 in0.0 mm
01:15 PM 79.9°F26.6°C 56.1°F13.4°C 44% 3.1 mph N5.0 kmh N 6.9 mph11.1 kmh 30.57 in1035.2 mb 0.00 in0.0 mm 0.00 in0.0 mm 0.00 in0.0 mm
01:30 PM 80.8°F27.1°C 55.6°F13.1°C 42% Calm Calm 3.1 mph5.0 kmh 30.57 in1035.2 mb 0.00 in0.0 mm 0.00 in0.0 mm 0.00 in0.0 mm
01:45 PM 80.1°F26.7°C 52.9°F11.6°C 39% 2.2 mph W3.5 kmh W 4.5 mph7.2 kmh 30.56 in1034.9 mb 0.00 in0.0 mm 0.00 in0.0 mm 0.00 in0.0 mm
02:00 PM 80.6°F27.0°C 55.4°F13.0°C 42% 0.7 mph NW1.1 kmh NW 3.8 mph6.1 kmh 30.57 in1035.2 mb 0.00 in0.0 mm 0.00 in0.0 mm 0.00 in0.0 mm
02:15 PM 81.5°F27.5°C 56.2°F13.4°C 42% 1.6 mph WNW2.6 kmh WNW 5.4 mph8.7 kmh 30.57 in1035.2 mb 0.00 in0.0 mm 0.00 in0.0 mm 0.00 in0.0 mm
02:30 PM 82.6°F28.1°C 56.5°F13.6°C 41% 3.8 mph NNW6.1 kmh NNW 6.0 mph9.7 kmh 30.57 in1035.2 mb 0.00 in0.0 mm 0.00 in0.0 mm 0.00 in0.0 mm
02:45 PM 82.2°F27.9°C 56.2°F13.4°C 41% 3.1 mph W5.0 kmh W 5.4 mph8.7 kmh 30.57 in1035.2 mb 0.00 in0.0 mm 0.00 in0.0 mm 0.00 in0.0 mm
03:00 PM 81.0°F27.2°C 57.0°F13.9°C 44% 1.6 mph N2.6 kmh N 5.4 mph8.7 kmh 30.57 in1035.2 mb 0.00 in0.0 mm 0.00 in0.0 mm 0.00 in0.0 mm
03:15 PM 78.6°F25.9°C 56.7°F13.7°C 47% 0.7 mph NNW1.1 kmh NNW 3.8 mph6.1 kmh 30.56 in1034.9 mb 0.00 in0.0 mm 0.00 in0.0 mm 0.00 in0.0 mm
03:30 PM 78.8°F26.0°C 58.6°F14.8°C 50% 1.6 mph NNW2.6 kmh NNW 4.5 mph7.2 kmh 30.56 in1034.9 mb 0.00 in0.0 mm 0.00 in0.0 mm 0.00 in0.0 mm
03:45 PM 78.4°F25.8°C 57.7°F14.3°C 49% 1.6 mph NNW2.6 kmh NNW 6.0 mph9.7 kmh 30.56 in1034.9 mb 0.00 in0.0 mm 0.00 in0.0 mm 0.00 in0.0 mm
04:00 PM 78.4°F25.8°C 58.3°F14.6°C 50% 1.6 mph NNW2.6 kmh NNW 5.4 mph8.7 kmh 30.56 in1034.9 mb 0.00 in0.0 mm 0.00 in0.0 mm 0.00 in0.0 mm
04:15 PM 78.4°F25.8°C 59.4°F15.2°C 52% 3.1 mph NNW5.0 kmh NNW 8.3 mph13.4 kmh 30.56 in1034.9 mb 0.00 in0.0 mm 0.00 in0.0 mm 0.00 in0.0 mm
04:30 PM 80.1°F26.7°C 56.8°F13.8°C 45% 4.5 mph NNW7.2 kmh NNW 9.2 mph14.8 kmh 30.56 in1034.9 mb 0.00 in0.0 mm 0.00 in0.0 mm 0.00 in0.0 mm
04:45 PM 79.0°F26.1°C 55.2°F12.9°C 44% 3.8 mph NNW6.1 kmh NNW 12.1 mph19.5 kmh 30.56 in1034.9 mb 0.00 in0.0 mm 0.00 in0.0 mm 0.00 in0.0 mm
05:00 PM 79.0°F26.1°C 55.9°F13.3°C 45% 4.5 mph N7.2 kmh N 8.3 mph13.4 kmh 30.56 in1034.9 mb 0.00 in0.0 mm 0.00 in0.0 mm 0.00 in0.0 mm
05:15 PM 78.4°F25.8°C 54.8°F12.7°C 44% 5.4 mph NNW8.7 kmh NNW 7.6 mph12.2 kmh 30.56 in1034.9 mb 0.00 in0.0 mm 0.00 in0.0 mm 0.00 in0.0 mm
05:30 PM 77.7°F25.4°C 55.9°F13.3°C 47% 2.2 mph NNW3.5 kmh NNW 7.6 mph12.2 kmh 30.57 in1035.2 mb 0.00 in0.0 mm 0.00 in0.0 mm 0.00 in0.0 mm
05:45 PM 78.3°F25.7°C 57.0°F13.9°C 48% 1.6 mph NNW2.6 kmh NNW 4.5 mph7.2 kmh 30.57 in1035.2 mb 0.00 in0.0 mm 0.00 in0.0 mm 0.00 in0.0 mm
06:00 PM 76.6°F24.8°C 58.3°F14.6°C 53% 1.6 mph NW2.6 kmh NW 3.8 mph6.1 kmh 30.57 in1035.2 mb 0.00 in0.0 mm 0.00 in0.0 mm 0.00 in0.0 mm
06:15 PM 77.2°F25.1°C 57.1°F13.9°C 50% 2.2 mph N3.5 kmh N 5.4 mph8.7 kmh 30.57 in1035.2 mb 0.00 in0.0 mm 0.00 in0.0 mm 0.00 in0.0 mm
06:30 PM 75.4°F24.1°C 59.1°F15.1°C 57% Calm Calm 3.1 mph5.0 kmh 30.57 in1035.2 mb 0.00 in0.0 mm 0.00 in0.0 mm 0.00 in0.0 mm
06:45 PM 74.1°F23.4°C 60.8°F16.0°C 63% Calm Calm 4.5 mph7.2 kmh 30.57 in1035.2 mb 0.00 in0.0 mm 0.00 in0.0 mm 0.00 in0.0 mm
07:00 PM 71.6°F22.0°C 60.1°F15.6°C 67% 3.1 mph NNW5.0 kmh NNW 12.1 mph19.5 kmh 30.57 in1035.2 mb 0.00 in0.0 mm 0.00 in0.0 mm 0.00 in0.0 mm
07:15 PM 69.3°F20.7°C 59.5°F15.3°C 71% 1.6 mph NW2.6 kmh NW 7.6 mph12.2 kmh 30.58 in1035.6 mb 0.00 in0.0 mm 0.00 in0.0 mm 0.00 in0.0 mm
07:30 PM 68.7°F20.4°C 59.4°F15.2°C 72% 1.6 mph NW2.6 kmh NW 8.3 mph13.4 kmh 30.57 in1035.2 mb 0.00 in0.0 mm 0.00 in0.0 mm 0.00 in0.0 mm
07:45 PM 67.1°F19.5°C 58.9°F14.9°C 75% 2.2 mph NW3.5 kmh NW 9.2 mph14.8 kmh 30.59 in1035.9 mb 0.00 in0.0 mm 0.00 in0.0 mm 0.00 in0.0 mm
08:00 PM 66.4°F19.1°C 58.2°F14.6°C 75% 3.1 mph NNW5.0 kmh NNW 8.3 mph13.4 kmh 30.59 in1035.9 mb 0.00 in0.0 mm 0.00 in0.0 mm 0.00 in0.0 mm
08:15 PM 65.8°F18.8°C 58.1°F14.5°C 76% 2.2 mph NW3.5 kmh NW 9.8 mph15.8 kmh 30.60 in1036.2 mb 0.00 in0.0 mm 0.00 in0.0 mm 0.00 in0.0 mm
08:30 PM 65.5°F18.6°C 58.5°F14.7°C 78% 4.5 mph NNW7.2 kmh NNW 9.2 mph14.8 kmh 30.60 in1036.2 mb 0.00 in0.0 mm 0.00 in0.0 mm 0.00 in0.0 mm
08:45 PM 65.5°F18.6°C 57.0°F13.9°C 74% 5.4 mph NW8.7 kmh NW 9.8 mph15.8 kmh 30.60 in1036.2 mb 0.00 in0.0 mm 0.00 in0.0 mm 0.00 in0.0 mm
09:00 PM 65.7°F18.7°C 54.8°F12.7°C 68% 6.0 mph NNW9.7 kmh NNW 10.7 mph17.2 kmh 30.60 in1036.2 mb 0.00 in0.0 mm 0.00 in0.0 mm 0.00 in0.0 mm
09:15 PM 65.1°F18.4°C 53.5°F11.9°C 66% 4.5 mph NW7.2 kmh NW 9.8 mph15.8 kmh 30.61 in1036.6 mb 0.00 in0.0 mm 0.00 in0.0 mm 0.00 in0.0 mm
09:30 PM 64.4°F18.0°C 56.0°F13.3°C 74% 3.8 mph NW6.1 kmh NW 7.6 mph12.2 kmh 30.62 in1036.9 mb 0.00 in0.0 mm 0.00 in0.0 mm 0.00 in0.0 mm
09:45 PM 63.9°F17.7°C 55.4°F13.0°C 74% 3.1 mph NW5.0 kmh NW 11.4 mph18.3 kmh 30.62 in1036.9 mb 0.00 in0.0 mm 0.00 in0.0 mm 0.00 in0.0 mm
10:00 PM 63.3°F17.4°C 54.5°F12.5°C 73% 5.4 mph NW8.7 kmh NW 9.8 mph15.8 kmh 30.61 in1036.6 mb 0.00 in0.0 mm 0.00 in0.0 mm 0.00 in0.0 mm
10:30 PM 63.3°F17.4°C 53.0°F11.7°C 69% 3.8 mph NNW6.1 kmh NNW 9.2 mph14.8 kmh 30.61 in1036.6 mb 0.00 in0.0 mm 0.00 in0.0 mm 0.00 in0.0 mm
10:45 PM 63.1°F17.3°C 52.4°F11.3°C 68% 4.5 mph NW7.2 kmh NW 13.6 mph21.9 kmh 30.61 in1036.6 mb 0.00 in0.0 mm 0.00 in0.0 mm 0.00 in0.0 mm
11:00 PM 62.8°F17.1°C 52.1°F11.2°C 68% 3.8 mph NW6.1 kmh NW 12.1 mph19.5 kmh 30.61 in1036.6 mb 0.00 in0.0 mm 0.00 in0.0 mm 0.00 in0.0 mm
11:15 PM 62.6°F17.0°C 51.9°F11.1°C 68% 2.2 mph NW3.5 kmh NW 9.8 mph15.8 kmh 30.61 in1036.6 mb 0.00 in0.0 mm 0.00 in0.0 mm 0.00 in0.0 mm
11:30 PM 62.2°F16.8°C 51.6°F10.9°C 68% 6.9 mph NNW11.1 kmh NNW 13.0 mph20.9 kmh 30.61 in1036.6 mb 0.00 in0.0 mm 0.00 in0.0 mm 0.00 in0.0 mm
11:45 PM 61.7°F16.5°C 51.8°F11.0°C 70% 3.8 mph NNW6.1 kmh NNW 11.4 mph18.3 kmh 30.61 in1036.6 mb 0.00 in0.0 mm 0.00 in0.0 mm 0.00 in0.0 mm